Time;durP1;ratioP1;P1;durP2;ratioP2;P2;SDS_P1;SDS_P2;PMS_P1;PMS_P2;Temp;Humidity;BMP_temperature;BMP_pressure;BME280_temperature;BME280_humidity;BME280_pressure;Samples;Min_cycle;Max_cycle;Signal;HPM_P1;HPM_P2
2022/08/25 00:01:43;;;;;;;33.00;12.32;;;;;;;23.78;100.00;99458.09;5034325;28;20063;-73
2022/08/25 00:04:11;;;;;;;25.50;8.13;;;;;;;23.68;100.00;99450.72;5036573;28;20068;-73
2022/08/25 00:06:39;;;;;;;26.08;8.85;;;;;;;23.80;100.00;99462.19;5019039;28;20259;-73
2022/08/25 00:09:05;;;;;;;21.35;7.38;;;;;;;23.84;100.00;99449.78;5035510;28;21348;-73
2022/08/25 00:11:33;;;;;;;24.08;7.78;;;;;;;23.77;100.00;99449.19;5034626;28;20255;-73
2022/08/25 00:14:03;;;;;;;25.35;8.43;;;;;;;23.96;100.00;99460.47;5034600;28;20034;-73
2022/08/25 00:16:33;;;;;;;25.20;7.95;;;;;;;24.03;100.00;99455.69;5034105;28;20498;-73
2022/08/25 00:19:04;;;;;;;31.58;7.82;;;;;;;23.98;100.00;99465.63;5034814;28;20043;-72
2022/08/25 00:21:33;;;;;;;29.80;8.30;;;;;;;23.92;100.00;99455.81;5033968;28;20021;-73
2022/08/25 00:24:01;;;;;;;25.38;7.47;;;;;;;23.94;100.00;99459.09;5033836;28;20235;-73
2022/08/25 00:26:27;;;;;;;28.60;8.15;;;;;;;23.83;100.00;99455.44;5033961;28;20030;-73
2022/08/25 00:28:53;;;;;;;25.15;8.65;;;;;;;23.71;100.00;99452.09;5027954;28;20332;-73
2022/08/25 00:31:22;;;;;;;27.00;11.27;;;;;;;23.74;100.00;99451.56;5033433;28;20030;-74
2022/08/25 00:33:49;;;;;;;29.17;9.13;;;;;;;23.65;100.00;99447.69;5027826;28;20042;-73
2022/08/25 00:36:16;;;;;;;26.63;8.15;;;;;;;23.68;100.00;99444.50;5025764;28;20037;-73
2022/08/25 00:38:44;;;;;;;21.98;8.02;;;;;;;23.68;100.00;99436.38;5025361;28;20307;-73
2022/08/25 00:41:12;;;;;;;25.35;8.05;;;;;;;23.68;100.00;99436.38;5025968;28;20030;-73
2022/08/25 00:43:41;;;;;;;25.08;9.07;;;;;;;23.61;100.00;99427.66;5010639;28;20034;-73
2022/08/25 00:46:12;;;;;;;24.58;9.32;;;;;;;23.78;100.00;99433.78;5027610;28;20052;-73
2022/08/25 00:48:39;;;;;;;30.95;7.38;;;;;;;23.77;100.00;99429.44;5026444;28;20064;-73
2022/08/25 00:51:08;;;;;;;27.25;8.38;;;;;;;23.79;100.00;99432.69;5026820;28;20034;-73
2022/08/25 00:53:34;;;;;;;20.05;7.85;;;;;;;23.83;100.00;99423.00;5026440;28;20041;-73
2022/08/25 00:56:00;;;;;;;29.83;7.72;;;;;;;23.77;100.00;99419.44;5026876;28;20245;-73
2022/08/25 00:58:30;;;;;;;23.45;8.10;;;;;;;23.78;100.00;99417.56;5028223;28;20041;-73
2022/08/25 01:00:56;;;;;;;27.55;8.02;;;;;;;23.85;100.00;99415.47;5025633;28;20028;-73
2022/08/25 01:03:24;;;;;;;21.17;7.57;;;;;;;24.04;100.00;99415.91;5027699;28;20029;-73
2022/08/25 01:05:51;;;;;;;20.83;7.50;;;;;;;24.09;100.00;99418.66;5027086;28;20048;-73
2022/08/25 01:08:19;;;;;;;22.77;6.88;;;;;;;24.03;100.00;99417.81;5026507;28;20223;-73
2022/08/25 01:10:46;;;;;;;22.67;6.85;;;;;;;23.75;100.00;99416.19;5025676;28;20091;-73
2022/08/25 01:13:17;;;;;;;23.15;7.60;;;;;;;23.55;100.00;99414.09;5008860;28;20034;-73
2022/08/25 01:15:48;;;;;;;22.63;7.20;;;;;;;23.51;100.00;99418.34;5027027;28;20053;-73
2022/08/25 01:18:14;;;;;;;28.73;7.97;;;;;;;23.50;100.00;99408.59;5025623;28;20034;-74
2022/08/25 01:20:40;;;;;;;22.40;6.85;;;;;;;23.78;100.00;99414.84;5029647;28;20232;-73
2022/08/25 01:23:06;;;;;;;25.45;7.55;;;;;;;23.72;100.00;99421.28;5024894;28;20240;-73
2022/08/25 01:25:51;;;;;;;19.95;6.63;;;;;;;23.77;100.00;99415.91;5025540;28;20109;-73
2022/08/25 01:28:20;;;;;;;31.35;8.27;;;;;;;23.83;100.00;99423.00;5025954;28;20318;-73
2022/08/25 01:30:45;;;;;;;20.25;7.28;;;;;;;23.83;100.00;99417.59;5024803;28;20033;-73
2022/08/25 01:33:11;;;;;;;19.70;7.20;;;;;;;23.75;100.00;99412.66;5026447;28;20030;-73
2022/08/25 01:35:39;;;;;;;28.13;7.38;;;;;;;23.61;100.00;99414.97;5025223;28;20037;-73
2022/08/25 01:38:06;;;;;;;22.90;7.53;;;;;;;23.39;100.00;99374.44;5025318;28;20114;-73
2022/08/25 01:40:32;;;;;;;31.63;7.97;;;;;;;23.64;100.00;99409.03;5026985;28;20094;-73
2022/08/25 01:43:07;;;;;;;23.70;7.70;;;;;;;23.61;100.00;99414.97;5025950;28;20038;-73
2022/08/25 01:45:33;;;;;;;29.05;9.07;;;;;;;23.72;100.00;99421.28;5026238;28;20030;-73
2022/08/25 01:47:59;;;;;;;29.42;8.55;;;;;;;23.17;100.00;99411.47;5023008;28;20139;-73
2022/08/25 01:50:24;;;;;;;30.77;7.50;;;;;;;23.37;100.00;99414.41;5026544;28;20025;-73
2022/08/25 01:52:57;;;;;;;21.35;7.50;;;;;;;23.52;100.00;99409.16;5026180;28;20274;-73
2022/08/25 01:55:23;;;;;;;24.55;8.32;;;;;;;23.27;100.00;99410.78;5030969;28;20046;-73
2022/08/25 01:57:51;;;;;;;29.63;7.70;;;;;;;23.38;100.00;99404.41;5028973;28;20224;-73
2022/08/25 02:00:18;;;;;;;29.35;7.72;;;;;;;23.35;100.00;99408.44;5030040;28;20041;-73
2022/08/25 02:02:44;;;;;;;26.75;7.25;;;;;;;23.04;100.00;99401.88;5026990;28;20041;-73
2022/08/25 02:05:12;;;;;;;24.15;7.40;;;;;;;23.02;100.00;99395.09;5028690;28;20034;-73
2022/08/25 02:07:40;;;;;;;31.88;7.95;;;;;;;23.03;100.00;99388.63;5030371;28;20064;-73
2022/08/25 02:10:06;;;;;;;23.48;7.05;;;;;;;23.17;100.00;99385.28;5029640;28;20272;-73
2022/08/25 02:12:34;;;;;;;18.80;6.72;;;;;;;23.19;100.00;99375.03;5026256;28;20065;-73
2022/08/25 02:15:00;;;;;;;15.23;6.82;;;;;;;23.01;100.00;99374.56;5030347;28;20048;-73
2022/08/25 02:17:28;;;;;;;21.40;7.22;;;;;;;23.02;100.00;99377.00;5026870;28;20044;-73
2022/08/25 02:19:55;;;;;;;24.42;7.47;;;;;;;23.01;100.00;99383.47;5031025;28;20067;-73
2022/08/25 02:22:20;;;;;;;27.00;7.85;;;;;;;23.10;100.00;99375.75;5027650;28;20025;-73
2022/08/25 02:24:46;;;;;;;30.52;7.80;;;;;;;23.04;100.00;99365.94;5036192;28;20357;-73
2022/08/25 02:27:12;;;;;;;21.42;7.63;;;;;;;23.00;100.00;99365.63;5044193;28;20219;-73
2022/08/25 02:29:37;;;;;;;26.10;7.80;;;;;;;22.96;100.00;99369.09;5044230;28;20025;-73
2022/08/25 02:32:03;;;;;;;23.50;6.88;;;;;;;23.01;100.00;99372.66;5044062;28;20307;-73
2022/08/25 02:34:29;;;;;;;25.95;8.77;;;;;;;23.00;100.00;99365.63;5044176;28;20296;-73
2022/08/25 02:36:54;;;;;;;21.30;7.55;;;;;;;22.97;100.00;99373.44;5044212;28;20346;-73
2022/08/25 02:39:20;;;;;;;24.13;7.63;;;;;;;22.85;100.00;99363.53;5044216;28;20052;-73
2022/08/25 02:41:45;;;;;;;29.15;7.88;;;;;;;22.89;100.00;99364.69;5044248;28;20021;-73
2022/08/25 02:44:10;;;;;;;26.95;11.50;;;;;;;22.94;100.00;99361.25;5043784;28;20161;-73
2022/08/25 02:46:37;;;;;;;22.02;7.95;;;;;;;22.85;100.00;99347.34;5043903;28;20033;-73
2022/08/25 02:49:04;;;;;;;32.67;6.70;;;;;;;22.75;100.00;99339.09;5044032;28;20048;-73
2022/08/25 02:51:30;;;;;;;18.67;6.32;;;;;;;22.65;100.00;99332.75;5043902;28;20048;-73
2022/08/25 02:53:58;;;;;;;20.85;6.75;;;;;;;22.56;100.00;99335.06;5026080;28;20034;-73
2022/08/25 02:56:24;;;;;;;17.40;6.35;;;;;;;22.53;100.00;99339.06;5043662;28;20335;-73
2022/08/25 02:58:50;;;;;;;23.60;6.10;;;;;;;22.72;100.00;99347.69;5043724;28;20037;-73
2022/08/25 03:01:16;;;;;;;12.73;5.18;;;;;;;22.76;100.00;99343.41;5043760;28;20245;-73
2022/08/25 03:03:44;;;;;;;18.70;6.47;;;;;;;22.82;100.00;99350.53;5025227;28;20034;-73
2022/08/25 03:06:12;;;;;;;22.35;7.47;;;;;;;22.90;100.00;99339.34;5032985;28;20085;-73
2022/08/25 03:08:38;;;;;;;22.48;6.35;;;;;;;22.76;100.00;99338.03;5027041;28;20265;-73
2022/08/25 03:11:04;;;;;;;19.30;6.07;;;;;;;22.74;100.00;99332.06;5043349;28;20075;-73
2022/08/25 03:13:31;;;;;;;18.55;5.53;;;;;;;22.78;100.00;99329.66;5043400;28;20025;-73
2022/08/25 03:15:58;;;;;;;13.85;5.82;;;;;;;22.64;100.00;99331.94;5043309;28;20319;-73
2022/08/25 03:18:24;;;;;;;14.73;5.55;;;;;;;22.80;100.00;99335.66;5031945;28;20112;-73
2022/08/25 03:20:49;;;;;;;20.75;5.60;;;;;;;22.76;100.00;99342.59;5022981;28;20037;-74
2022/08/25 03:23:14;;;;;;;16.33;5.57;;;;;;;22.72;100.00;99331.50;5028277;28;20041;-73
2022/08/25 03:28:25;;;;;;;16.25;4.80;;;;;;;22.74;99.25;99348.25;5026342;28;21254;-73
2022/08/25 03:30:52;;;;;;;18.50;5.50;;;;;;;22.86;98.51;99340.06;5027085;28;20033;-73
2022/08/25 03:33:18;;;;;;;14.85;4.82;;;;;;;23.02;97.87;99351.88;5027299;28;20057;-73
2022/08/25 03:35:44;;;;;;;19.38;5.10;;;;;;;23.03;97.51;99351.63;5025062;28;20033;-73
2022/08/25 03:38:10;;;;;;;14.27;4.47;;;;;;;23.05;97.36;99362.19;5030268;28;20041;-73
2022/08/25 03:40:36;;;;;;;20.98;5.07;;;;;;;22.91;98.00;99350.94;5027016;28;20063;-73
2022/08/25 03:43:02;;;;;;;23.30;5.00;;;;;;;23.17;97.26;99365.56;5026590;28;20025;-73
2022/08/25 03:45:28;;;;;;;15.30;5.03;;;;;;;22.98;98.37;99358.84;5009712;28;20030;-73
2022/08/25 03:48:25;;;;;;;13.52;4.88;;;;;;;22.99;98.08;99361.31;5235178;22;21654;-72
2022/08/25 03:50:53;;;;;;;16.10;5.25;;;;;;;22.90;98.20;99346.63;5061749;28;20039;-72
2022/08/25 03:53:18;;;;;;;17.63;5.22;;;;;;;22.73;99.85;99368.22;5062808;28;20074;-72
2022/08/25 03:55:44;;;;;;;16.55;5.10;;;;;;;22.83;99.75;99360.28;5062807;28;20230;-72
2022/08/25 03:58:11;;;;;;;16.30;5.63;;;;;;;22.74;100.00;99353.66;5062826;28;20033;-72
2022/08/25 04:00:36;;;;;;;19.67;6.00;;;;;;;22.18;100.00;99350.19;5062556;28;20025;-72
2022/08/25 04:03:02;;;;;;;15.77;5.53;;;;;;;22.21;100.00;99365.88;5062780;28;20348;-72
2022/08/25 04:05:27;;;;;;;16.30;6.82;;;;;;;22.24;100.00;99368.06;5062501;28;20028;-72
2022/08/25 04:07:53;;;;;;;21.77;7.53;;;;;;;22.35;100.00;99368.22;5062548;28;20036;-72
2022/08/25 04:10:19;;;;;;;20.17;7.05;;;;;;;22.60;100.00;99380.19;5062499;28;20050;-72
2022/08/25 04:12:46;;;;;;;21.75;7.18;;;;;;;22.49;100.00;99370.31;5062404;28;20017;-72
2022/08/25 04:15:11;;;;;;;17.83;6.93;;;;;;;22.63;100.00;99373.47;5062310;28;20377;-72
2022/08/25 04:17:38;;;;;;;131.55;71.18;;;;;;;22.52;100.00;99374.41;5062199;28;20041;-72
2022/08/25 04:20:07;;;;;;;81.60;46.00;;;;;;;22.58;100.00;99374.22;5062296;28;20333;-72
2022/08/25 04:22:32;;;;;;;37.97;14.65;;;;;;;22.69;100.00;99371.66;5044275;28;20059;-72
2022/08/25 04:24:58;;;;;;;21.63;7.38;;;;;;;22.79;100.00;99371.78;5062412;28;20248;-72
2022/08/25 04:27:24;;;;;;;19.85;8.25;;;;;;;22.77;100.00;99355.03;5062020;28;20061;-72
2022/08/25 04:29:49;;;;;;;20.85;8.70;;;;;;;22.73;100.00;99362.81;5062579;28;20029;-73
2022/08/25 04:32:15;;;;;;;16.83;7.13;;;;;;;22.94;100.00;99355.84;5062267;28;20047;-72
2022/08/25 04:34:42;;;;;;;14.35;6.75;;;;;;;22.89;100.00;99364.69;5061966;28;20029;-72
2022/08/25 04:37:08;;;;;;;15.95;6.53;;;;;;;22.97;100.00;99363.44;5062228;28;20071;-72
2022/08/25 04:39:33;;;;;;;14.05;6.07;;;;;;;22.95;100.00;99352.06;5062067;28;20318;-72
2022/08/25 04:42:00;;;;;;;13.25;5.22;;;;;;;22.86;100.00;99342.75;5060548;28;20044;-72
2022/08/25 04:44:26;;;;;;;15.15;4.93;;;;;;;22.97;99.35;99347.25;5056487;28;20076;-72
2022/08/25 04:46:51;;;;;;;10.63;5.20;;;;;;;22.98;98.42;99345.34;5056951;28;20083;-72
2022/08/25 04:49:17;;;;;;;15.52;5.07;;;;;;;23.09;97.43;99344.41;5064420;28;20044;-72
2022/08/25 04:51:43;;;;;;;12.90;5.00;;;;;;;23.07;98.27;99343.84;5080161;28;20085;-72
2022/08/25 04:54:11;;;;;;;12.30;6.57;;;;;;;23.03;98.95;99346.22;5080676;28;20036;-72
2022/08/25 04:56:40;;;;;;;12.68;4.75;;;;;;;23.14;97.59;99341.75;5078370;28;20099;-72
2022/08/25 04:59:11;;;;;;;13.15;4.90;;;;;;;22.95;97.77;99343.97;5075644;28;20039;-72
2022/08/25 05:01:38;;;;;;;13.30;4.63;;;;;;;22.95;97.84;99338.56;5060544;28;20049;-72
2022/08/25 05:04:06;;;;;;;12.95;5.15;;;;;;;23.10;97.20;99337.94;5081262;28;20040;-72
2022/08/25 05:06:32;;;;;;;9.77;4.70;;;;;;;23.17;97.14;99333.97;5060661;28;20033;-72
2022/08/25 05:08:58;;;;;;;7.72;4.18;;;;;;;23.31;96.39;99336.25;5078270;28;20032;-72
2022/08/25 05:11:25;;;;;;;17.00;5.00;;;;;;;23.47;95.44;99341.56;5077218;28;20048;-72
2022/08/25 05:13:53;;;;;;;11.10;4.50;;;;;;;23.74;94.29;99346.97;5077479;28;20072;-72
2022/08/25 05:16:21;;;;;;;11.20;4.78;;;;;;;23.76;94.42;99352.94;5059894;28;20244;-72
2022/08/25 05:18:47;;;;;;;9.20;4.07;;;;;;;23.85;93.04;99337.84;5046294;28;20230;-72
2022/08/25 05:21:20;;;;;;;9.63;4.10;;;;;;;23.98;93.06;99330.41;5059580;28;20044;-72
2022/08/25 05:23:46;;;;;;;13.23;4.53;;;;;;;24.14;92.63;99337.56;5077702;28;20237;-72
2022/08/25 05:26:18;;;;;;;13.48;4.72;;;;;;;24.15;91.99;99331.88;5082032;28;20445;-72
2022/08/25 05:28:43;;;;;;;9.50;4.47;;;;;;;24.34;90.96;99339.59;5083449;28;20036;-72
2022/08/25 05:31:12;;;;;;;9.95;4.60;;;;;;;24.49;90.09;99345.09;5081186;28;20029;-72
2022/08/25 05:33:39;;;;;;;14.23;4.93;;;;;;;24.47;89.53;99342.66;5081956;28;20044;-72
2022/08/25 05:36:06;;;;;;;12.60;4.80;;;;;;;24.48;88.85;99340.75;5081758;28;20059;-72
2022/08/25 05:38:33;;;;;;;15.15;5.90;;;;;;;24.58;88.81;99335.41;5050488;28;20214;-72
2022/08/25 05:41:06;;;;;;;12.90;5.43;;;;;;;24.87;87.25;99334.97;5081922;28;20039;-72
2022/08/25 05:43:32;;;;;;;15.70;5.50;;;;;;;25.08;86.56;99336.75;5081475;28;20099;-72
2022/08/25 05:45:58;;;;;;;18.73;5.90;;;;;;;25.29;85.30;99337.59;5080827;28;20036;-72
2022/08/25 05:48:25;;;;;;;14.73;5.15;;;;;;;25.39;84.12;99330.31;5063305;28;20059;-72
2022/08/25 05:50:56;;;;;;;17.92;5.97;;;;;;;25.50;83.33;99333.84;5081193;28;20048;-72
2022/08/25 05:53:23;;;;;;;11.93;5.97;;;;;;;25.71;83.06;99329.28;5080804;28;20304;-72
2022/08/25 05:55:51;;;;;;;15.98;6.50;;;;;;;25.89;81.72;99328.72;5082068;28;20028;-72
2022/08/25 05:58:17;;;;;;;20.23;6.97;;;;;;;25.65;82.43;99320.31;5081101;28;20058;-72
2022/08/25 06:00:42;;;;;;;19.60;8.70;;;;;;;25.57;83.27;99323.53;5080674;28;20333;-72
2022/08/25 06:03:08;;;;;;;28.98;10.60;;;;;;;25.82;82.33;99308.38;5081435;28;20223;-72
2022/08/25 06:05:34;;;;;;;26.30;9.43;;;;;;;25.95;82.41;99311.34;5080407;28;20036;-72
2022/08/25 06:07:59;;;;;;;17.70;8.27;;;;;;;26.32;79.01;99312.94;5049224;28;20282;-72
2022/08/25 06:10:26;;;;;;;24.77;8.70;;;;;;;26.45;79.63;99314.31;5080422;28;20078;-72
2022/08/25 06:12:51;;;;;;;24.55;8.57;;;;;;;26.82;78.36;99308.44;5080752;28;20029;-72
2022/08/25 06:15:21;;;;;;;18.35;8.15;;;;;;;26.81;77.35;99304.91;5062528;28;20249;-73
2022/08/25 06:17:47;;;;;;;18.92;8.15;;;;;;;26.90;77.02;99305.16;5082251;28;20101;-73
2022/08/25 06:20:19;;;;;;;30.25;9.40;;;;;;;26.89;77.04;99308.94;5080629;28;20036;-72
2022/08/25 06:22:45;;;;;;;17.42;9.20;;;;;;;26.89;76.93;99290.75;5079934;28;20064;-72
2022/08/25 06:25:13;;;;;;;18.02;9.20;;;;;;;27.04;77.24;99309.72;5080086;28;20047;-72
2022/08/25 06:27:39;;;;;;;20.55;9.02;;;;;;;26.85;76.22;99311.41;5080237;28;20210;-72
2022/08/25 06:30:08;;;;;;;24.45;9.68;;;;;;;26.70;77.41;99316.91;5079852;28;20092;-72
2022/08/25 06:32:36;;;;;;;16.52;9.05;;;;;;;26.63;76.45;99295.50;5079619;28;20028;-72
2022/08/25 06:35:08;;;;;;;23.70;9.38;;;;;;;26.67;76.59;99304.72;5081045;28;20428;-72
2022/08/25 06:37:34;;;;;;;30.30;11.13;;;;;;;26.75;77.17;99300.59;5080619;28;20044;-72
2022/08/25 06:39:59;;;;;;;21.38;9.73;;;;;;;26.73;77.56;99303.59;5065361;28;20254;-72
2022/08/25 06:42:26;;;;;;;20.85;9.82;;;;;;;26.99;77.65;99295.34;5080242;28;20032;-72
2022/08/25 06:44:52;;;;;;;26.73;9.85;;;;;;;27.19;76.89;99286.28;5080856;28;20040;-72
2022/08/25 06:47:19;;;;;;;27.75;9.98;;;;;;;27.55;75.58;99301.25;5079470;28;20044;-72
2022/08/25 06:49:45;;;;;;;22.17;9.88;;;;;;;27.86;75.53;99301.81;5069856;28;20040;-73
2022/08/25 06:52:12;;;;;;;26.90;10.25;;;;;;;27.97;73.99;99295.19;5061617;28;20041;-73
2022/08/25 06:54:38;;;;;;;27.33;9.65;;;;;;;28.03;73.11;99293.22;5060886;28;20036;-72
2022/08/25 06:57:05;;;;;;;26.60;10.80;;;;;;;27.90;73.52;99294.72;5061735;28;20098;-72
2022/08/25 06:59:31;;;;;;;25.98;9.82;;;;;;;28.02;72.33;99298.97;5061400;28;20045;-72
2022/08/25 07:01:58;;;;;;;23.95;10.07;;;;;;;28.15;72.58;99293.69;5060939;28;20024;-73
2022/08/25 07:04:23;;;;;;;22.17;10.23;;;;;;;28.29;71.92;99291.91;5043815;28;20021;-72
2022/08/25 07:06:49;;;;;;;29.83;10.70;;;;;;;28.25;70.96;99281.91;5063260;28;20104;-73
2022/08/25 07:09:15;;;;;;;26.23;11.55;;;;;;;28.28;70.87;99276.69;5062128;28;20048;-72
2022/08/25 07:11:42;;;;;;;30.13;10.63;;;;;;;28.57;69.12;99279.34;5060671;28;20036;-73
2022/08/25 07:14:11;;;;;;;28.75;11.02;;;;;;;28.46;70.82;99277.84;5065494;28;20277;-72
2022/08/25 07:16:37;;;;;;;21.27;10.77;;;;;;;28.74;69.77;99272.59;5062178;28;20052;-73
2022/08/25 07:19:04;;;;;;;31.23;11.60;;;;;;;28.80;69.28;99271.41;5063216;28;20097;-73
2022/08/25 07:21:32;;;;;;;34.50;10.77;;;;;;;28.81;69.42;99278.47;5060810;28;20036;-72
2022/08/25 07:24:00;;;;;;;29.55;10.90;;;;;;;28.77;68.54;99270.09;5064688;28;20039;-72
2022/08/25 07:26:29;;;;;;;22.42;10.85;;;;;;;28.85;68.65;99274.09;5061828;28;20254;-73
2022/08/25 07:28:56;;;;;;;24.95;10.65;;;;;;;29.17;68.95;99263.31;5062723;28;20036;-73
2022/08/25 07:31:21;;;;;;;32.75;11.00;;;;;;;29.33;69.28;99265.78;5062408;28;20033;-73
2022/08/25 07:36:32;;;;;;;28.15;10.35;;;;;;;29.76;66.57;99271.91;5062643;28;20099;-73
2022/08/25 07:38:59;;;;;;;34.42;10.93;;;;;;;29.75;65.44;99273.03;5062844;28;20041;-73
2022/08/25 07:41:25;;;;;;;33.92;10.20;;;;;;;29.91;65.53;99271.66;5044172;28;20179;-73
2022/08/25 07:43:51;;;;;;;34.42;11.18;;;;;;;30.04;66.64;99272.81;5040579;28;20119;-72
2022/08/25 07:46:17;;;;;;;33.08;10.57;;;;;;;30.15;65.15;99277.78;5065210;28;20049;-73
2022/08/25 07:48:42;;;;;;;33.67;10.25;;;;;;;30.23;63.58;99284.47;5062502;28;20147;-73
2022/08/25 07:51:10;;;;;;;32.90;11.05;;;;;;;30.41;63.07;99278.13;5077757;28;20029;-73
2022/08/25 07:53:36;;;;;;;30.75;10.63;;;;;;;30.38;62.69;99269.72;5078147;28;20074;-73
2022/08/25 07:56:02;;;;;;;33.28;10.52;;;;;;;30.39;61.55;99272.16;5077297;28;20041;-73
2022/08/25 07:58:28;;;;;;;34.38;10.70;;;;;;;30.48;60.93;99267.59;5075860;28;20136;-72
2022/08/25 08:00:53;;;;;;;32.15;10.15;;;;;;;30.67;60.61;99277.63;5078380;28;20374;-73
2022/08/25 08:03:19;;;;;;;29.15;9.55;;;;;;;30.85;60.67;99276.69;5077214;28;20763;-73
2022/08/25 08:05:45;;;;;;;28.02;9.38;;;;;;;31.03;58.81;99278.44;5077280;28;20070;-73
2022/08/25 08:08:11;;;;;;;35.75;9.32;;;;;;;31.11;57.67;99274.19;5078046;28;20028;-73
2022/08/25 08:10:40;;;;;;;32.53;9.52;;;;;;;31.30;56.34;99277.63;5077074;28;20041;-73
2022/08/25 08:13:07;;;;;;;30.20;9.02;;;;;;;31.22;56.36;99275.63;5077018;28;20310;-73
2022/08/25 08:15:32;;;;;;;24.52;8.90;;;;;;;31.22;55.72;99277.53;5078023;28;20044;-73
2022/08/25 08:17:58;;;;;;;35.75;9.60;;;;;;;31.39;57.87;99266.72;5076674;28;20037;-73
2022/08/25 08:20:24;;;;;;;42.35;11.18;;;;;;;31.44;58.97;99272.88;5075803;28;20067;-73
2022/08/25 08:22:49;;;;;;;33.80;9.73;;;;;;;31.66;57.82;99280.28;5077505;28;20051;-73
2022/08/25 08:25:15;;;;;;;36.05;10.18;;;;;;;31.66;57.09;99282.22;5076990;28;20309;-73
2022/08/25 08:27:41;;;;;;;26.55;10.05;;;;;;;31.66;56.82;99276.75;5077581;28;20100;-73
2022/08/25 08:30:08;;;;;;;39.55;10.82;;;;;;;31.68;56.19;99279.97;5076707;28;21088;-72
2022/08/25 08:32:34;;;;;;;43.58;9.75;;;;;;;31.74;54.56;99279.56;5075541;28;20036;-73
2022/08/25 08:35:00;;;;;;;43.40;9.65;;;;;;;31.63;53.95;99267.22;5077742;28;20036;-73
2022/08/25 08:37:26;;;;;;;30.63;10.07;;;;;;;31.53;54.28;99269.41;5076551;28;20269;-73
2022/08/25 08:39:52;;;;;;;32.45;9.93;;;;;;;31.82;56.13;99275.25;5058615;28;20064;-73
2022/08/25 08:42:56;;;;;;;32.75;10.10;;;;;;;31.93;54.36;99278.53;5077963;28;20044;-73
2022/08/25 08:45:29;;;;;;;46.28;11.45;;;;;;;31.83;54.98;99276.06;5064875;28;20052;-73
2022/08/25 08:48:14;;;;;;;42.78;10.15;;;;;;;31.99;54.67;99271.78;5075950;28;20047;-73
2022/08/25 08:50:48;;;;;;;35.20;10.57;;;;;;;32.02;54.34;99276.66;5076619;28;20048;-73
2022/08/25 08:53:45;;;;;;;36.92;10.52;;;;;;;32.03;53.92;99270.84;5075971;28;20036;-73
2022/08/25 08:56:33;;;;;;;46.08;10.45;;;;;;;32.04;54.17;99274.41;5077368;28;20040;-73
2022/08/25 08:59:08;;;;;;;42.30;9.63;;;;;;;31.97;51.96;99283.06;5077379;28;20048;-73
2022/08/25 09:01:43;;;;;;;35.15;9.40;;;;;;;32.12;51.19;99281.03;5080273;28;20042;-73
2022/08/25 09:04:43;;;;;;;36.13;9.23;;;;;;;31.96;47.84;99283.38;5081490;28;20060;-73
2022/08/25 09:07:28;;;;;;;45.13;8.98;;;;;;;32.08;46.96;99286.34;5079282;28;20349;-73
2022/08/25 09:09:56;;;;;;;47.15;9.77;;;;;;;32.18;49.06;99263.34;5079373;28;20051;-73
2022/08/25 09:12:43;;;;;;;39.30;9.85;;;;;;;32.16;49.72;99269.13;5081931;28;20063;-73
2022/08/25 09:16:53;;;;;;;42.97;9.30;;;;;;;32.22;49.30;99276.09;5079754;28;20032;-73
2022/08/25 09:18:33;;;;;;;43.22;8.93;;;;;;;32.45;49.43;99265.09;5080858;28;20102;-73
2022/08/25 09:21:08;;;;;;;44.58;9.10;;;;;;;32.38;46.97;99271.84;5081015;28;20099;-73
2022/08/25 09:24:05;;;;;;;37.90;8.70;;;;;;;32.38;46.69;99268.31;5080364;28;20032;-73
2022/08/25 09:26:37;;;;;;;40.20;8.77;;;;;;;32.34;48.69;99261.84;5079475;28;20040;-73
2022/08/25 09:29:08;;;;;;;46.97;9.07;;;;;;;32.33;46.99;99258.31;5081211;28;20044;-73
2022/08/25 09:31:37;;;;;;;42.63;9.25;;;;;;;32.02;47.23;99246.53;5062460;28;20333;-73
2022/08/25 09:34:10;;;;;;;49.75;8.77;;;;;;;32.32;44.84;99247.66;5062179;28;20020;-73
2022/08/25 09:36:36;;;;;;;39.35;9.02;;;;;;;32.25;44.77;99253.59;5080106;28;20032;-73
2022/08/25 09:39:02;;;;;;;40.83;8.50;;;;;;;31.84;45.59;99234.69;5080376;28;20221;-73
2022/08/25 09:41:56;;;;;;;44.03;8.07;;;;;;;31.83;45.07;99238.53;5062031;28;20047;-73
2022/08/25 09:44:40;;;;;;;42.40;9.55;;;;;;;31.78;46.78;99230.47;5076267;28;20067;-73
2022/08/25 09:47:14;;;;;;;46.20;8.30;;;;;;;31.67;46.17;99223.63;5079040;28;20099;-74
2022/08/25 09:49:44;;;;;;;43.90;8.50;;;;;;;31.66;44.62;99232.94;5079609;28;20044;-74
2022/08/25 09:52:21;;;;;;;43.45;8.50;;;;;;;31.57;43.16;99227.41;5080770;28;20020;-73
2022/08/25 09:54:49;;;;;;;47.00;7.45;;;;;;;31.68;39.93;99222.50;5080437;28;20033;-73
2022/08/25 09:57:27;;;;;;;44.35;6.75;;;;;;;31.92;39.39;99228.44;5061544;28;20070;-73
2022/08/25 09:59:53;;;;;;;41.08;7.50;;;;;;;31.70;39.45;99212.88;5079457;28;20123;-73
2022/08/25 10:02:27;;;;;;;39.88;6.18;;;;;;;31.71;40.38;99211.75;5080654;28;20429;-73
2022/08/25 10:04:53;;;;;;;42.08;7.63;;;;;;;31.65;41.43;99217.66;5079982;28;20242;-73
2022/08/25 10:07:47;;;;;;;41.50;7.60;;;;;;;31.68;37.62;99215.09;5079228;28;20044;-73
2022/08/25 10:10:31;;;;;;;35.40;6.10;;;;;;;31.51;39.79;99212.25;5077238;28;20055;-74
2022/08/25 10:12:59;;;;;;;;;;;;;;;31.71;39.23;99210.94;5080594;28;20078;-73
2022/08/25 10:15:35;;;;;;;42.33;7.60;;;;;;;31.71;38.22;99206.28;5079225;28;20233;-73
2022/08/25 10:18:19;;;;;;;41.35;6.28;;;;;;;31.57;38.91;99213.75;5060842;28;20026;-73
2022/08/25 10:21:19;;;;;;;31.30;6.05;;;;;;;31.60;39.22;99202.16;5079475;28;20277;-73
2022/08/25 10:23:47;;;;;;;45.45;6.93;;;;;;;31.69;38.85;99202.22;5078652;28;20365;-73
2022/08/25 10:26:28;;;;;;;40.85;7.57;;;;;;;31.83;38.88;99196.66;5076634;28;20035;-73
2022/08/25 10:28:59;;;;;;;33.42;6.70;;;;;;;31.82;39.25;99200.53;5078575;28;20028;-73
2022/08/25 10:31:35;;;;;;;43.10;6.55;;;;;;;31.84;37.90;99201.81;5078310;28;20074;-73
2022/08/25 10:34:01;;;;;;;42.95;7.00;;;;;;;31.81;38.31;99187.97;5079793;28;20481;-73
2022/08/25 10:36:34;;;;;;;39.20;6.45;;;;;;;31.73;38.12;99187.59;5079386;28;20086;-73
2022/08/25 10:39:01;;;;;;;36.95;6.75;;;;;;;31.71;37.56;99189.84;5078379;28;20044;-73
2022/08/25 10:42:07;;;;;;;34.28;6.30;;;;;;;31.70;37.71;99185.50;5059965;28;20066;-72
2022/08/25 10:48:26;;;;;;;39.83;6.20;;;;;;;31.37;38.61;99167.75;5078257;28;20340;-73
2022/08/25 10:51:02;;;;;;;39.42;6.72;;;;;;;31.26;39.33;99161.72;5017726;28;20044;-73
2022/08/25 10:53:54;;;;;;;37.28;6.53;;;;;;;31.59;39.98;99164.97;5037002;28;20063;-73
2022/08/25 10:56:44;;;;;;;46.08;7.07;;;;;;;31.69;38.61;99153.78;5057343;28;20109;-73
2022/08/25 10:59:28;;;;;;;43.55;6.72;;;;;;;31.57;39.05;99164.47;5059413;28;20036;-73
2022/08/25 11:02:27;;;;;;;38.78;6.55;;;;;;;31.68;38.20;99154.06;5059150;28;20372;-73
2022/08/25 11:05:07;;;;;;;41.58;7.18;;;;;;;31.57;38.00;99152.72;5058101;28;20044;-73
2022/08/25 11:07:50;;;;;;;48.55;6.93;;;;;;;31.63;41.46;99165.16;5059133;28;20028;-73
2022/08/25 11:10:17;;;;;;;36.65;6.10;;;;;;;31.78;41.69;99155.75;5058639;28;20080;-73
2022/08/25 11:12:52;;;;;;;34.97;6.38;;;;;;;31.75;40.44;99154.44;5058271;28;20028;-73
2022/08/25 11:15:32;;;;;;;43.63;7.20;;;;;;;31.82;41.73;99137.56;5057505;28;20044;-73
2022/08/25 11:18:08;;;;;;;36.63;7.25;;;;;;;31.92;40.04;99157.25;5056624;28;20318;-73
2022/08/25 11:20:48;;;;;;;34.45;6.15;;;;;;;32.02;40.19;99151.47;5057286;28;20040;-73
2022/08/25 11:23:18;;;;;;;44.03;6.35;;;;;;;31.92;38.77;99149.03;5057086;28;20206;-73
2022/08/25 11:25:49;;;;;;;40.28;7.00;;;;;;;32.02;37.03;99142.47;5058740;28;20037;-73
2022/08/25 11:28:34;;;;;;;39.90;7.40;;;;;;;31.79;38.13;99138.19;5058314;28;20035;-73
2022/08/25 11:31:02;;;;;;;41.22;6.50;;;;;;;31.74;39.95;99147.34;5059105;28;20037;-73
2022/08/25 11:33:29;;;;;;;59.25;7.13;;;;;;;31.77;40.07;99145.91;5040003;28;20036;-73
2022/08/25 11:36:02;;;;;;;41.75;6.60;;;;;;;31.83;40.15;99147.38;5057771;28;20039;-73
2022/08/25 11:38:31;;;;;;;35.28;6.22;;;;;;;31.75;39.65;99143.50;5057703;28;20206;-73
2022/08/25 11:40:59;;;;;;;36.28;6.20;;;;;;;31.93;38.74;99147.09;5058849;28;20345;-73
2022/08/25 11:43:28;;;;;;;42.55;6.45;;;;;;;31.98;37.66;99134.06;5058049;28;20045;-73